sensor_id;sensor_type;location;lat;lon;timestamp;temperature;humidity
11239;DHT22;5677;48.488;13.436;2022-11-15T00:00:08;13.10;53.60
11239;DHT22;5677;48.488;13.436;2022-11-15T00:02:36;13.10;53.60
11239;DHT22;5677;48.488;13.436;2022-11-15T00:05:04;13.10;53.70
11239;DHT22;5677;48.488;13.436;2022-11-15T00:07:31;13.10;53.60
11239;DHT22;5677;48.488;13.436;2022-11-15T00:09:58;13.00;53.50
11239;DHT22;5677;48.488;13.436;2022-11-15T00:12:26;13.10;53.70
11239;DHT22;5677;48.488;13.436;2022-11-15T00:14:53;13.10;53.60
11239;DHT22;5677;48.488;13.436;2022-11-15T00:17:20;13.00;53.60
11239;DHT22;5677;48.488;13.436;2022-11-15T00:19:47;13.00;53.60
11239;DHT22;5677;48.488;13.436;2022-11-15T00:22:16;13.10;53.70
11239;DHT22;5677;48.488;13.436;2022-11-15T00:24:43;13.10;53.60
11239;DHT22;5677;48.488;13.436;2022-11-15T00:27:09;13.10;53.70
11239;DHT22;5677;48.488;13.436;2022-11-15T00:29:36;13.00;53.60
11239;DHT22;5677;48.488;13.436;2022-11-15T00:32:04;13.00;53.60
11239;DHT22;5677;48.488;13.436;2022-11-15T00:34:31;13.00;53.60
11239;DHT22;5677;48.488;13.436;2022-11-15T00:36:58;13.00;53.60
11239;DHT22;5677;48.488;13.436;2022-11-15T00:39:26;13.00;53.60
11239;DHT22;5677;48.488;13.436;2022-11-15T00:41:52;13.00;53.60
11239;DHT22;5677;48.488;13.436;2022-11-15T00:44:19;13.00;53.60
11239;DHT22;5677;48.488;13.436;2022-11-15T00:46:46;13.00;53.60
11239;DHT22;5677;48.488;13.436;2022-11-15T00:49:13;13.00;53.60
11239;DHT22;5677;48.488;13.436;2022-11-15T00:51:39;13.00;53.50
11239;DHT22;5677;48.488;13.436;2022-11-15T00:54:06;13.00;53.50
11239;DHT22;5677;48.488;13.436;2022-11-15T00:56:34;13.00;53.60
11239;DHT22;5677;48.488;13.436;2022-11-15T00:59:01;13.00;53.60
11239;DHT22;5677;48.488;13.436;2022-11-15T01:01:28;13.00;53.60
11239;DHT22;5677;48.488;13.436;2022-11-15T01:03:55;13.00;53.60
11239;DHT22;5677;48.488;13.436;2022-11-15T01:06:21;13.00;53.60
11239;DHT22;5677;48.488;13.436;2022-11-15T01:08:48;12.90;53.50
11239;DHT22;5677;48.488;13.436;2022-11-15T01:11:15;13.00;53.60
11239;DHT22;5677;48.488;13.436;2022-11-15T01:13:43;12.90;53.60
11239;DHT22;5677;48.488;13.436;2022-11-15T01:16:13;13.00;53.60
11239;DHT22;5677;48.488;13.436;2022-11-15T01:18:41;12.90;53.60
11239;DHT22;5677;48.488;13.436;2022-11-15T01:21:08;12.90;53.50
11239;DHT22;5677;48.488;13.436;2022-11-15T01:23:36;13.00;53.60
11239;DHT22;5677;48.488;13.436;2022-11-15T01:26:05;12.90;53.50
11239;DHT22;5677;48.488;13.436;2022-11-15T01:28:33;13.00;53.60
11239;DHT22;5677;48.488;13.436;2022-11-15T01:31:03;12.90;53.60
11239;DHT22;5677;48.488;13.436;2022-11-15T01:33:33;12.90;53.60
11239;DHT22;5677;48.488;13.436;2022-11-15T01:36:03;12.90;53.60
11239;DHT22;5677;48.488;13.436;2022-11-15T01:38:30;12.90;53.60
11239;DHT22;5677;48.488;13.436;2022-11-15T01:40:57;12.90;53.60
11239;DHT22;5677;48.488;13.436;2022-11-15T01:43:26;12.90;53.60
11239;DHT22;5677;48.488;13.436;2022-11-15T01:45:55;12.90;53.60
11239;DHT22;5677;48.488;13.436;2022-11-15T01:48:27;12.90;53.60
11239;DHT22;5677;48.488;13.436;2022-11-15T01:50:56;12.90;53.60
11239;DHT22;5677;48.488;13.436;2022-11-15T01:53:23;12.90;53.60
11239;DHT22;5677;48.488;13.436;2022-11-15T01:55:52;12.90;53.60
11239;DHT22;5677;48.488;13.436;2022-11-15T01:58:19;12.90;53.60
11239;DHT22;5677;48.488;13.436;2022-11-15T02:00:46;12.90;53.60
11239;DHT22;5677;48.488;13.436;2022-11-15T02:03:15;12.90;53.60
11239;DHT22;5677;48.488;13.436;2022-11-15T02:05:43;12.90;53.60
11239;DHT22;5677;48.488;13.436;2022-11-15T02:08:10;12.90;53.60
11239;DHT22;5677;48.488;13.436;2022-11-15T02:10:45;12.90;53.60
11239;DHT22;5677;48.488;13.436;2022-11-15T02:13:13;12.90;53.60
11239;DHT22;5677;48.488;13.436;2022-11-15T02:15:44;12.90;53.60
11239;DHT22;5677;48.488;13.436;2022-11-15T02:18:18;12.90;53.60
11239;DHT22;5677;48.488;13.436;2022-11-15T02:20:56;12.90;53.60
11239;DHT22;5677;48.488;13.436;2022-11-15T02:23:56;12.90;53.60
11239;DHT22;5677;48.488;13.436;2022-11-15T02:26:57;12.90;53.60
11239;DHT22;5677;48.488;13.436;2022-11-15T02:29:39;12.90;53.60
11239;DHT22;5677;48.488;13.436;2022-11-15T02:32:18;12.80;53.50
11239;DHT22;5677;48.488;13.436;2022-11-15T02:34:54;12.80;53.50
11239;DHT22;5677;48.488;13.436;2022-11-15T02:37:29;12.80;53.50
11239;DHT22;5677;48.488;13.436;2022-11-15T02:40:01;12.80;53.50
11239;DHT22;5677;48.488;13.436;2022-11-15T02:42:35;12.80;53.50
11239;DHT22;5677;48.488;13.436;2022-11-15T02:45:26;12.80;53.50
11239;DHT22;5677;48.488;13.436;2022-11-15T02:47:57;12.80;53.50
11239;DHT22;5677;48.488;13.436;2022-11-15T02:50:28;12.80;53.50
11239;DHT22;5677;48.488;13.436;2022-11-15T02:52:56;12.80;53.50
11239;DHT22;5677;48.488;13.436;2022-11-15T02:55:28;12.80;53.50
11239;DHT22;5677;48.488;13.436;2022-11-15T02:58:06;12.80;53.50
11239;DHT22;5677;48.488;13.436;2022-11-15T03:00:37;12.80;53.50
11239;DHT22;5677;48.488;13.436;2022-11-15T03:03:25;12.80;53.50
11239;DHT22;5677;48.488;13.436;2022-11-15T03:06:02;12.80;53.50
11239;DHT22;5677;48.488;13.436;2022-11-15T03:08:37;12.80;53.50
11239;DHT22;5677;48.488;13.436;2022-11-15T03:11:09;12.70;53.50
11239;DHT22;5677;48.488;13.436;2022-11-15T03:13:38;12.80;53.50
11239;DHT22;5677;48.488;13.436;2022-11-15T03:16:11;12.80;53.50
11239;DHT22;5677;48.488;13.436;2022-11-15T03:18:45;12.80;53.50
11239;DHT22;5677;48.488;13.436;2022-11-15T03:21:15;12.80;53.50
11239;DHT22;5677;48.488;13.436;2022-11-15T03:23:44;12.80;53.50
11239;DHT22;5677;48.488;13.436;2022-11-15T03:26:14;12.70;53.50
11239;DHT22;5677;48.488;13.436;2022-11-15T03:28:47;12.80;53.50
11239;DHT22;5677;48.488;13.436;2022-11-15T03:31:17;12.70;53.50
11239;DHT22;5677;48.488;13.436;2022-11-15T03:34:07;12.80;53.50
11239;DHT22;5677;48.488;13.436;2022-11-15T03:36:37;12.80;53.50
11239;DHT22;5677;48.488;13.436;2022-11-15T03:39:07;12.70;53.50
11239;DHT22;5677;48.488;13.436;2022-11-15T03:41:38;12.70;53.50
11239;DHT22;5677;48.488;13.436;2022-11-15T03:44:12;12.70;53.50
11239;DHT22;5677;48.488;13.436;2022-11-15T03:46:46;12.70;53.50
11239;DHT22;5677;48.488;13.436;2022-11-15T03:49:19;12.70;53.50
11239;DHT22;5677;48.488;13.436;2022-11-15T03:51:46;12.70;53.50
11239;DHT22;5677;48.488;13.436;2022-11-15T03:54:13;12.70;53.50
11239;DHT22;5677;48.488;13.436;2022-11-15T03:56:40;12.70;53.50
11239;DHT22;5677;48.488;13.436;2022-11-15T03:59:07;12.70;53.50
11239;DHT22;5677;48.488;13.436;2022-11-15T04:01:34;12.70;53.50
11239;DHT22;5677;48.488;13.436;2022-11-15T04:04:00;12.70;53.50
11239;DHT22;5677;48.488;13.436;2022-11-15T04:06:29;12.70;53.50
11239;DHT22;5677;48.488;13.436;2022-11-15T04:08:55;12.70;53.50
11239;DHT22;5677;48.488;13.436;2022-11-15T04:11:22;12.70;53.50
11239;DHT22;5677;48.488;13.436;2022-11-15T04:13:49;12.70;53.50
11239;DHT22;5677;48.488;13.436;2022-11-15T04:16:16;12.70;53.50
11239;DHT22;5677;48.488;13.436;2022-11-15T04:18:43;12.70;53.60
11239;DHT22;5677;48.488;13.436;2022-11-15T04:21:09;12.70;53.50
11239;DHT22;5677;48.488;13.436;2022-11-15T04:23:55;12.70;53.50
11239;DHT22;5677;48.488;13.436;2022-11-15T04:26:40;12.70;53.50
11239;DHT22;5677;48.488;13.436;2022-11-15T04:29:06;12.70;53.50
11239;DHT22;5677;48.488;13.436;2022-11-15T04:31:50;12.60;53.50
11239;DHT22;5677;48.488;13.436;2022-11-15T04:34:17;12.60;53.50
11239;DHT22;5677;48.488;13.436;2022-11-15T04:36:44;12.70;53.50
11239;DHT22;5677;48.488;13.436;2022-11-15T04:39:29;12.60;53.40
11239;DHT22;5677;48.488;13.436;2022-11-15T04:41:56;12.60;54.10
11239;DHT22;5677;48.488;13.436;2022-11-15T04:44:23;12.60;53.50
11239;DHT22;5677;48.488;13.436;2022-11-15T04:46:50;12.60;53.50
11239;DHT22;5677;48.488;13.436;2022-11-15T04:49:17;12.60;53.50
11239;DHT22;5677;48.488;13.436;2022-11-15T04:51:44;12.60;53.50
11239;DHT22;5677;48.488;13.436;2022-11-15T04:54:10;12.60;53.50
11239;DHT22;5677;48.488;13.436;2022-11-15T04:56:39;12.60;53.50
11239;DHT22;5677;48.488;13.436;2022-11-15T04:59:06;12.60;53.50
11239;DHT22;5677;48.488;13.436;2022-11-15T05:01:32;12.60;53.50
11239;DHT22;5677;48.488;13.436;2022-11-15T05:03:59;12.60;53.40
11239;DHT22;5677;48.488;13.436;2022-11-15T05:06:44;12.60;53.50
11239;DHT22;5677;48.488;13.436;2022-11-15T05:09:11;12.60;53.50
11239;DHT22;5677;48.488;13.436;2022-11-15T05:11:40;12.60;53.50
11239;DHT22;5677;48.488;13.436;2022-11-15T05:14:07;12.60;53.50
11239;DHT22;5677;48.488;13.436;2022-11-15T05:16:34;12.60;53.50
11239;DHT22;5677;48.488;13.436;2022-11-15T05:19:01;12.60;53.50
11239;DHT22;5677;48.488;13.436;2022-11-15T05:21:28;12.60;53.40
11239;DHT22;5677;48.488;13.436;2022-11-15T05:23:55;12.60;53.50
11239;DHT22;5677;48.488;13.436;2022-11-15T05:26:21;12.60;53.50
11239;DHT22;5677;48.488;13.436;2022-11-15T05:28:53;12.60;53.50
11239;DHT22;5677;48.488;13.436;2022-11-15T05:31:20;12.60;53.50
11239;DHT22;5677;48.488;13.436;2022-11-15T05:33:49;12.60;53.50
11239;DHT22;5677;48.488;13.436;2022-11-15T05:36:19;12.60;53.50
11239;DHT22;5677;48.488;13.436;2022-11-15T05:38:48;12.60;53.50
11239;DHT22;5677;48.488;13.436;2022-11-15T05:41:16;12.60;53.50
11239;DHT22;5677;48.488;13.436;2022-11-15T05:43:44;12.50;53.40
11239;DHT22;5677;48.488;13.436;2022-11-15T05:46:12;12.50;53.40
11239;DHT22;5677;48.488;13.436;2022-11-15T05:48:41;12.60;53.40
11239;DHT22;5677;48.488;13.436;2022-11-15T05:51:09;12.50;54.10
11239;DHT22;5677;48.488;13.436;2022-11-15T05:53:39;12.60;53.50
11239;DHT22;5677;48.488;13.436;2022-11-15T05:56:06;12.50;53.50
11239;DHT22;5677;48.488;13.436;2022-11-15T05:58:33;12.50;53.50
11239;DHT22;5677;48.488;13.436;2022-11-15T06:01:00;12.50;53.50
11239;DHT22;5677;48.488;13.436;2022-11-15T06:03:28;12.50;53.50
11239;DHT22;5677;48.488;13.436;2022-11-15T06:05:56;12.50;53.50
11239;DHT22;5677;48.488;13.436;2022-11-15T06:08:23;12.50;53.40
11239;DHT22;5677;48.488;13.436;2022-11-15T06:10:50;12.50;53.40
11239;DHT22;5677;48.488;13.436;2022-11-15T06:13:17;12.50;53.50
11239;DHT22;5677;48.488;13.436;2022-11-15T06:15:43;12.50;53.50
11239;DHT22;5677;48.488;13.436;2022-11-15T06:18:10;12.50;53.50
11239;DHT22;5677;48.488;13.436;2022-11-15T06:20:38;12.50;53.50
11239;DHT22;5677;48.488;13.436;2022-11-15T06:23:05;12.50;53.40
11239;DHT22;5677;48.488;13.436;2022-11-15T06:25:32;12.50;53.40
11239;DHT22;5677;48.488;13.436;2022-11-15T06:27:59;12.50;53.50
11239;DHT22;5677;48.488;13.436;2022-11-15T06:30:26;12.50;53.40
11239;DHT22;5677;48.488;13.436;2022-11-15T06:32:59;12.50;53.40
11239;DHT22;5677;48.488;13.436;2022-11-15T06:35:27;12.50;53.50
11239;DHT22;5677;48.488;13.436;2022-11-15T06:37:55;12.50;53.40
11239;DHT22;5677;48.488;13.436;2022-11-15T06:40:22;12.50;53.50
11239;DHT22;5677;48.488;13.436;2022-11-15T06:42:49;12.50;53.50
11239;DHT22;5677;48.488;13.436;2022-11-15T06:45:16;12.50;53.40
11239;DHT22;5677;48.488;13.436;2022-11-15T06:47:45;12.50;53.40
11239;DHT22;5677;48.488;13.436;2022-11-15T06:50:13;12.50;53.40
11239;DHT22;5677;48.488;13.436;2022-11-15T06:52:40;12.50;53.40
11239;DHT22;5677;48.488;13.436;2022-11-15T06:55:09;12.50;53.40
11239;DHT22;5677;48.488;13.436;2022-11-15T06:57:36;12.50;53.40
11239;DHT22;5677;48.488;13.436;2022-11-15T07:00:03;12.50;53.40
11239;DHT22;5677;48.488;13.436;2022-11-15T07:02:30;12.50;53.40
11239;DHT22;5677;48.488;13.436;2022-11-15T07:04:57;12.50;53.40
11239;DHT22;5677;48.488;13.436;2022-11-15T07:07:24;12.50;53.30
11239;DHT22;5677;48.488;13.436;2022-11-15T07:09:51;12.50;53.30
11239;DHT22;5677;48.488;13.436;2022-11-15T07:12:19;12.50;53.30
11239;DHT22;5677;48.488;13.436;2022-11-15T07:14:46;12.50;53.20
11239;DHT22;5677;48.488;13.436;2022-11-15T07:17:12;12.50;53.20
11239;DHT22;5677;48.488;13.436;2022-11-15T07:19:39;12.50;53.20
11239;DHT22;5677;48.488;13.436;2022-11-15T07:22:06;12.60;53.80
11239;DHT22;5677;48.488;13.436;2022-11-15T07:24:33;12.60;53.10
11239;DHT22;5677;48.488;13.436;2022-11-15T07:26:59;12.60;53.10
11239;DHT22;5677;48.488;13.436;2022-11-15T07:29:28;12.60;53.00
11239;DHT22;5677;48.488;13.436;2022-11-15T07:31:55;12.60;53.10
11239;DHT22;5677;48.488;13.436;2022-11-15T07:34:21;12.70;53.10
11239;DHT22;5677;48.488;13.436;2022-11-15T07:36:49;12.70;53.70
11239;DHT22;5677;48.488;13.436;2022-11-15T07:39:16;12.70;53.00
11239;DHT22;5677;48.488;13.436;2022-11-15T07:41:42;12.70;53.00
11239;DHT22;5677;48.488;13.436;2022-11-15T07:44:10;12.80;53.00
11239;DHT22;5677;48.488;13.436;2022-11-15T07:46:38;12.80;53.00
11239;DHT22;5677;48.488;13.436;2022-11-15T07:49:05;12.90;53.10
11239;DHT22;5677;48.488;13.436;2022-11-15T07:51:31;12.90;53.10
11239;DHT22;5677;48.488;13.436;2022-11-15T07:53:58;13.00;53.60
11239;DHT22;5677;48.488;13.436;2022-11-15T07:56:25;13.10;52.90
11239;DHT22;5677;48.488;13.436;2022-11-15T07:58:52;13.20;52.70
11239;DHT22;5677;48.488;13.436;2022-11-15T08:01:19;13.20;52.50
11239;DHT22;5677;48.488;13.436;2022-11-15T08:03:47;13.30;52.30
11239;DHT22;5677;48.488;13.436;2022-11-15T08:06:14;13.40;52.10
11239;DHT22;5677;48.488;13.436;2022-11-15T08:08:40;13.50;51.90
11239;DHT22;5677;48.488;13.436;2022-11-15T08:11:07;13.60;51.70
11239;DHT22;5677;48.488;13.436;2022-11-15T08:13:34;13.70;51.50
11239;DHT22;5677;48.488;13.436;2022-11-15T08:16:01;13.70;51.20
11239;DHT22;5677;48.488;13.436;2022-11-15T08:18:30;13.90;51.00
11239;DHT22;5677;48.488;13.436;2022-11-15T08:21:00;13.90;50.70
11239;DHT22;5677;48.488;13.436;2022-11-15T08:23:28;14.00;50.50
11239;DHT22;5677;48.488;13.436;2022-11-15T08:25:59;14.10;50.30
11239;DHT22;5677;48.488;13.436;2022-11-15T08:28:26;14.20;50.00
11239;DHT22;5677;48.488;13.436;2022-11-15T08:30:53;14.20;49.80
11239;DHT22;5677;48.488;13.436;2022-11-15T08:33:20;14.30;49.70
11239;DHT22;5677;48.488;13.436;2022-11-15T08:35:47;14.30;49.50
11239;DHT22;5677;48.488;13.436;2022-11-15T08:38:15;14.30;49.40
11239;DHT22;5677;48.488;13.436;2022-11-15T08:40:42;14.30;49.90
11239;DHT22;5677;48.488;13.436;2022-11-15T08:43:09;14.30;49.20
11239;DHT22;5677;48.488;13.436;2022-11-15T08:45:36;14.30;49.20
11239;DHT22;5677;48.488;13.436;2022-11-15T08:48:03;14.20;49.80
11239;DHT22;5677;48.488;13.436;2022-11-15T08:50:30;14.20;49.20
11239;DHT22;5677;48.488;13.436;2022-11-15T08:52:57;14.10;49.30
11239;DHT22;5677;48.488;13.436;2022-11-15T08:55:25;14.10;49.50
11239;DHT22;5677;48.488;13.436;2022-11-15T08:57:52;14.00;49.60
11239;DHT22;5677;48.488;13.436;2022-11-15T09:00:19;13.90;49.70
11239;DHT22;5677;48.488;13.436;2022-11-15T09:02:46;13.80;49.80
11239;DHT22;5677;48.488;13.436;2022-11-15T09:05:13;13.80;50.00
11239;DHT22;5677;48.488;13.436;2022-11-15T09:07:41;13.80;50.00
11239;DHT22;5677;48.488;13.436;2022-11-15T09:10:08;13.70;50.20
11239;DHT22;5677;48.488;13.436;2022-11-15T09:12:36;13.70;50.30
11239;DHT22;5677;48.488;13.436;2022-11-15T09:15:04;13.70;50.40
11239;DHT22;5677;48.488;13.436;2022-11-15T09:17:31;13.70;50.40
11239;DHT22;5677;48.488;13.436;2022-11-15T09:19:58;13.70;50.50
11239;DHT22;5677;48.488;13.436;2022-11-15T09:22:25;13.60;50.50
11239;DHT22;5677;48.488;13.436;2022-11-15T09:24:51;13.60;50.60
11239;DHT22;5677;48.488;13.436;2022-11-15T09:27:18;13.60;50.60
11239;DHT22;5677;48.488;13.436;2022-11-15T09:29:46;13.50;50.70
11239;DHT22;5677;48.488;13.436;2022-11-15T09:32:13;13.50;50.70
11239;DHT22;5677;48.488;13.436;2022-11-15T09:34:40;13.60;50.80
11239;DHT22;5677;48.488;13.436;2022-11-15T09:37:07;13.50;50.90
11239;DHT22;5677;48.488;13.436;2022-11-15T09:39:33;13.50;50.90
11239;DHT22;5677;48.488;13.436;2022-11-15T09:45:17;13.50;51.00
11239;DHT22;5677;48.488;13.436;2022-11-15T09:50:47;13.50;51.00
11239;DHT22;5677;48.488;13.436;2022-11-15T09:53:22;13.50;51.00
11239;DHT22;5677;48.488;13.436;2022-11-15T09:55:55;13.50;51.10
11239;DHT22;5677;48.488;13.436;2022-11-15T09:58:29;13.40;51.00
11239;DHT22;5677;48.488;13.436;2022-11-15T10:01:05;13.40;51.10
11239;DHT22;5677;48.488;13.436;2022-11-15T10:03:34;13.40;51.10
11239;DHT22;5677;48.488;13.436;2022-11-15T10:06:04;13.40;51.20
11239;DHT22;5677;48.488;13.436;2022-11-15T10:08:44;13.40;51.20
11239;DHT22;5677;48.488;13.436;2022-11-15T10:11:15;13.40;51.90
11239;DHT22;5677;48.488;13.436;2022-11-15T10:13:45;13.40;51.30
11239;DHT22;5677;48.488;13.436;2022-11-15T10:16:33;13.40;51.30
11239;DHT22;5677;48.488;13.436;2022-11-15T10:19:09;13.40;51.30
11239;DHT22;5677;48.488;13.436;2022-11-15T10:21:45;13.40;51.40
11239;DHT22;5677;48.488;13.436;2022-11-15T10:24:17;13.40;51.50
11239;DHT22;5677;48.488;13.436;2022-11-15T10:26:46;13.40;51.50
11239;DHT22;5677;48.488;13.436;2022-11-15T10:29:18;13.40;51.50
11239;DHT22;5677;48.488;13.436;2022-11-15T10:31:47;13.40;51.60
11239;DHT22;5677;48.488;13.436;2022-11-15T10:34:15;13.30;51.70
11239;DHT22;5677;48.488;13.436;2022-11-15T10:36:45;13.30;51.70
11239;DHT22;5677;48.488;13.436;2022-11-15T10:39:13;13.30;51.80
11239;DHT22;5677;48.488;13.436;2022-11-15T10:41:42;13.30;51.80
11239;DHT22;5677;48.488;13.436;2022-11-15T10:44:12;13.30;51.70
11239;DHT22;5677;48.488;13.436;2022-11-15T10:46:44;13.30;51.70
11239;DHT22;5677;48.488;13.436;2022-11-15T10:49:18;13.30;51.70
11239;DHT22;5677;48.488;13.436;2022-11-15T10:51:47;13.30;51.70
11239;DHT22;5677;48.488;13.436;2022-11-15T10:54:18;13.30;51.80
11239;DHT22;5677;48.488;13.436;2022-11-15T10:56:50;13.30;51.80
11239;DHT22;5677;48.488;13.436;2022-11-15T10:59:23;13.30;51.80
11239;DHT22;5677;48.488;13.436;2022-11-15T11:01:50;13.30;51.90
11239;DHT22;5677;48.488;13.436;2022-11-15T11:04:18;13.30;51.90
11239;DHT22;5677;48.488;13.436;2022-11-15T11:06:50;13.30;51.90
11239;DHT22;5677;48.488;13.436;2022-11-15T11:09:27;13.30;52.00
11239;DHT22;5677;48.488;13.436;2022-11-15T11:11:55;13.30;52.00
11239;DHT22;5677;48.488;13.436;2022-11-15T11:14:23;13.30;52.00
11239;DHT22;5677;48.488;13.436;2022-11-15T11:16:55;13.30;52.10
11239;DHT22;5677;48.488;13.436;2022-11-15T11:19:41;13.30;52.10
11239;DHT22;5677;48.488;13.436;2022-11-15T11:22:17;13.30;52.10
11239;DHT22;5677;48.488;13.436;2022-11-15T11:24:49;13.20;52.00
11239;DHT22;5677;48.488;13.436;2022-11-15T11:27:33;13.20;52.00
11239;DHT22;5677;48.488;13.436;2022-11-15T11:30:08;13.30;52.20
11239;DHT22;5677;48.488;13.436;2022-11-15T11:33:09;13.30;52.20
11239;DHT22;5677;48.488;13.436;2022-11-15T11:35:45;13.30;52.20
11239;DHT22;5677;48.488;13.436;2022-11-15T11:38:27;13.30;52.20
11239;DHT22;5677;48.488;13.436;2022-11-15T11:41:03;13.30;52.20
11239;DHT22;5677;48.488;13.436;2022-11-15T11:43:49;13.30;52.20
11239;DHT22;5677;48.488;13.436;2022-11-15T11:46:38;13.30;52.10
11239;DHT22;5677;48.488;13.436;2022-11-15T11:49:10;13.30;52.20
11239;DHT22;5677;48.488;13.436;2022-11-15T11:51:43;13.40;52.10
11239;DHT22;5677;48.488;13.436;2022-11-15T11:54:14;13.50;52.00
11239;DHT22;5677;48.488;13.436;2022-11-15T11:56:44;13.60;51.80
11239;DHT22;5677;48.488;13.436;2022-11-15T11:59:19;13.60;51.60
11239;DHT22;5677;48.488;13.436;2022-11-15T12:01:47;13.80;51.30
11239;DHT22;5677;48.488;13.436;2022-11-15T12:04:17;14.00;50.80
11239;DHT22;5677;48.488;13.436;2022-11-15T12:06:50;14.30;50.40
11239;DHT22;5677;48.488;13.436;2022-11-15T12:09:21;14.50;49.90
11239;DHT22;5677;48.488;13.436;2022-11-15T12:11:54;14.60;49.40
11239;DHT22;5677;48.488;13.436;2022-11-15T12:14:29;14.70;49.10
11239;DHT22;5677;48.488;13.436;2022-11-15T12:16:58;14.80;48.80
11239;DHT22;5677;48.488;13.436;2022-11-15T12:19:25;14.80;48.60
11239;DHT22;5677;48.488;13.436;2022-11-15T12:21:58;14.80;48.50
11239;DHT22;5677;48.488;13.436;2022-11-15T12:24:31;14.80;48.30
11239;DHT22;5677;48.488;13.436;2022-11-15T12:27:03;14.80;48.30
11239;DHT22;5677;48.488;13.436;2022-11-15T12:29:35;14.90;48.50
11239;DHT22;5677;48.488;13.436;2022-11-15T12:32:04;14.90;48.30
11239;DHT22;5677;48.488;13.436;2022-11-15T12:34:41;15.10;48.10
11239;DHT22;5677;48.488;13.436;2022-11-15T12:40:37;15.50;47.30
11239;DHT22;5677;48.488;13.436;2022-11-15T12:46:12;15.90;46.10
11239;DHT22;5677;48.488;13.436;2022-11-15T12:48:57;15.80;46.10
11239;DHT22;5677;48.488;13.436;2022-11-15T12:57:41;15.00;47.20
11239;DHT22;5677;48.488;13.436;2022-11-15T13:03:26;14.60;48.30
11239;DHT22;5677;48.488;13.436;2022-11-15T13:06:03;14.40;48.80
11239;DHT22;5677;48.488;13.436;2022-11-15T13:08:46;14.20;49.20
11239;DHT22;5677;48.488;13.436;2022-11-15T13:11:51;14.10;49.60
11239;DHT22;5677;48.488;13.436;2022-11-15T13:14:48;14.00;49.80
11239;DHT22;5677;48.488;13.436;2022-11-15T13:17:34;13.90;50.10
11239;DHT22;5677;48.488;13.436;2022-11-15T13:20:22;13.80;50.30
11239;DHT22;5677;48.488;13.436;2022-11-15T13:22:52;13.80;50.50
11239;DHT22;5677;48.488;13.436;2022-11-15T13:25:35;13.70;50.70
11239;DHT22;5677;48.488;13.436;2022-11-15T13:28:17;13.70;50.80
11239;DHT22;5677;48.488;13.436;2022-11-15T13:30:51;13.70;50.90
11239;DHT22;5677;48.488;13.436;2022-11-15T13:33:22;13.60;51.00
11239;DHT22;5677;48.488;13.436;2022-11-15T13:35:52;13.60;51.00
11239;DHT22;5677;48.488;13.436;2022-11-15T13:38:27;13.60;51.10
11239;DHT22;5677;48.488;13.436;2022-11-15T13:40:54;13.50;51.20
11239;DHT22;5677;48.488;13.436;2022-11-15T13:43:30;13.50;51.30
11239;DHT22;5677;48.488;13.436;2022-11-15T13:46:12;13.50;51.30
11239;DHT22;5677;48.488;13.436;2022-11-15T13:48:40;13.50;51.40
11239;DHT22;5677;48.488;13.436;2022-11-15T13:51:12;13.50;51.50
11239;DHT22;5677;48.488;13.436;2022-11-15T13:53:45;13.50;51.50
11239;DHT22;5677;48.488;13.436;2022-11-15T13:56:13;13.50;51.50
11239;DHT22;5677;48.488;13.436;2022-11-15T13:58:41;13.50;51.60
11239;DHT22;5677;48.488;13.436;2022-11-15T14:01:15;13.50;51.60
11239;DHT22;5677;48.488;13.436;2022-11-15T14:03:49;13.40;51.60
11239;DHT22;5677;48.488;13.436;2022-11-15T14:06:19;13.40;51.60
11239;DHT22;5677;48.488;13.436;2022-11-15T14:09:00;13.40;51.60
11239;DHT22;5677;48.488;13.436;2022-11-15T14:11:27;13.40;51.70
11239;DHT22;5677;48.488;13.436;2022-11-15T14:14:11;13.40;51.70
11239;DHT22;5677;48.488;13.436;2022-11-15T14:16:42;13.40;51.80
11239;DHT22;5677;48.488;13.436;2022-11-15T14:19:11;13.40;51.70
11239;DHT22;5677;48.488;13.436;2022-11-15T14:25:18;13.40;51.90
11239;DHT22;5677;48.488;13.436;2022-11-15T14:28:11;13.40;51.90
11239;DHT22;5677;48.488;13.436;2022-11-15T14:30:39;13.40;51.90
11239;DHT22;5677;48.488;13.436;2022-11-15T14:33:19;13.40;52.00
11239;DHT22;5677;48.488;13.436;2022-11-15T14:35:46;13.30;52.00
11239;DHT22;5677;48.488;13.436;2022-11-15T14:38:13;13.30;52.00
11239;DHT22;5677;48.488;13.436;2022-11-15T14:40:42;13.30;52.00
11239;DHT22;5677;48.488;13.436;2022-11-15T14:43:09;13.30;52.00
11239;DHT22;5677;48.488;13.436;2022-11-15T14:45:37;13.30;52.10
11239;DHT22;5677;48.488;13.436;2022-11-15T14:48:04;13.30;52.10
11239;DHT22;5677;48.488;13.436;2022-11-15T14:50:33;13.30;52.10
11239;DHT22;5677;48.488;13.436;2022-11-15T14:53:01;13.30;52.20
11239;DHT22;5677;48.488;13.436;2022-11-15T14:55:30;13.30;52.20
11239;DHT22;5677;48.488;13.436;2022-11-15T14:57:59;13.30;52.30
11239;DHT22;5677;48.488;13.436;2022-11-15T15:00:27;13.20;52.20
11239;DHT22;5677;48.488;13.436;2022-11-15T15:02:55;13.20;52.20
11239;DHT22;5677;48.488;13.436;2022-11-15T15:05:25;13.20;52.30
11239;DHT22;5677;48.488;13.436;2022-11-15T15:07:53;13.20;52.30
11239;DHT22;5677;48.488;13.436;2022-11-15T15:10:21;13.20;52.30
11239;DHT22;5677;48.488;13.436;2022-11-15T15:12:48;13.20;52.30
11239;DHT22;5677;48.488;13.436;2022-11-15T15:15:17;13.20;52.40
11239;DHT22;5677;48.488;13.436;2022-11-15T15:17:44;13.20;52.40
11239;DHT22;5677;48.488;13.436;2022-11-15T15:20:11;13.20;52.40
11239;DHT22;5677;48.488;13.436;2022-11-15T15:22:38;13.20;52.40
11239;DHT22;5677;48.488;13.436;2022-11-15T15:25:20;13.20;52.40
11239;DHT22;5677;48.488;13.436;2022-11-15T15:27:47;13.10;52.50
11239;DHT22;5677;48.488;13.436;2022-11-15T15:30:14;13.10;52.50
11239;DHT22;5677;48.488;13.436;2022-11-15T15:32:41;13.10;52.50
11239;DHT22;5677;48.488;13.436;2022-11-15T15:35:11;13.10;52.50
11239;DHT22;5677;48.488;13.436;2022-11-15T15:37:38;13.10;52.50
11239;DHT22;5677;48.488;13.436;2022-11-15T15:40:11;13.10;52.60
11239;DHT22;5677;48.488;13.436;2022-11-15T15:42:40;13.10;52.60
11239;DHT22;5677;48.488;13.436;2022-11-15T15:45:08;13.10;52.50
11239;DHT22;5677;48.488;13.436;2022-11-15T15:47:35;13.10;52.60
11239;DHT22;5677;48.488;13.436;2022-11-15T15:50:03;13.10;52.60
11239;DHT22;5677;48.488;13.436;2022-11-15T15:52:30;13.10;52.70
11239;DHT22;5677;48.488;13.436;2022-11-15T15:54:57;13.00;52.60
11239;DHT22;5677;48.488;13.436;2022-11-15T15:57:24;13.00;52.60
11239;DHT22;5677;48.488;13.436;2022-11-15T15:59:52;13.00;52.60
11239;DHT22;5677;48.488;13.436;2022-11-15T16:02:18;13.00;52.60
11239;DHT22;5677;48.488;13.436;2022-11-15T16:04:45;13.00;52.60
11239;DHT22;5677;48.488;13.436;2022-11-15T16:07:16;13.00;52.70
11239;DHT22;5677;48.488;13.436;2022-11-15T16:09:49;13.00;52.70
11239;DHT22;5677;48.488;13.436;2022-11-15T16:12:28;13.00;52.70
11239;DHT22;5677;48.488;13.436;2022-11-15T16:14:57;13.00;52.70